Time;durP1;ratioP1;P1;durP2;ratioP2;P2;SDS_P1;SDS_P2;PMS_P1;PMS_P2;Temp;Humidity;BMP_temperature;BMP_pressure;BME280_temperature;BME280_humidity;BME280_pressure;Samples;Min_cycle;Max_cycle;Signal;HPM_P1;HPM_P2
2023/06/09 00:00:07;;;;;;;15.82;7.18;;;11.80;99.90;;;;;;5078828;28;20032;-78
2023/06/09 00:02:33;;;;;;;14.55;6.72;;;11.80;99.90;;;;;;5090645;27;20048;-78
2023/06/09 00:04:59;;;;;;;25.58;8.30;;;11.70;99.90;;;;;;5085002;28;20032;-77
2023/06/09 00:07:27;;;;;;;15.82;7.25;;;11.70;99.90;;;;;;5097090;27;20459;-77
2023/06/09 00:09:53;;;;;;;20.83;7.78;;;11.70;99.90;;;;;;5094546;27;20130;-77
2023/06/09 00:12:18;;;;;;;19.55;7.38;;;11.70;99.90;;;;;;5083025;28;20123;-77
2023/06/09 00:14:44;;;;;;;16.23;6.38;;;11.60;99.90;;;;;;5092472;27;20032;-77
2023/06/09 00:17:10;;;;;;;18.67;6.22;;;11.60;99.90;;;;;;5084181;28;20480;-78
2023/06/09 00:19:36;;;;;;;18.77;6.82;;;11.60;99.90;;;;;;5079451;28;20042;-77
2023/06/09 00:22:02;;;;;;;21.50;7.40;;;11.60;99.90;;;;;;5076705;28;20032;-77
2023/06/09 00:24:28;;;;;;;16.63;6.63;;;11.60;99.90;;;;;;5094407;27;20044;-77
2023/06/09 00:26:54;;;;;;;19.10;7.43;;;11.60;99.90;;;;;;5081994;28;20220;-78
2023/06/09 00:29:24;;;;;;;16.90;7.95;;;11.60;99.90;;;;;;5077364;28;20043;-77
2023/06/09 00:31:50;;;;;;;21.95;7.95;;;11.50;99.90;;;;;;5077542;28;20040;-77
2023/06/09 00:34:16;;;;;;;16.95;6.63;;;11.50;99.90;;;;;;5100745;27;20646;-77
2023/06/09 00:36:41;;;;;;;21.40;7.30;;;11.50;99.90;;;;;;5111176;27;20035;-77
2023/06/09 00:39:08;;;;;;;16.58;7.18;;;11.50;99.90;;;;;;5072265;28;20036;-77
2023/06/09 00:41:38;;;;;;;18.23;7.03;;;11.50;99.90;;;;;;5040181;28;20116;-77
2023/06/09 00:44:05;;;;;;;21.15;7.18;;;11.40;99.90;;;;;;5077104;28;20274;-77
2023/06/09 00:46:32;;;;;;;20.40;7.93;;;11.40;99.90;;;;;;5057695;28;20143;-76
2023/06/09 00:48:57;;;;;;;22.90;8.18;;;11.40;99.90;;;;;;5081737;28;20111;-78
2023/06/09 00:51:24;;;;;;;20.90;7.50;;;11.40;99.90;;;;;;5080200;28;20165;-77
2023/06/09 00:53:50;;;;;;;22.20;7.97;;;11.30;99.90;;;;;;5082648;28;20052;-77
2023/06/09 00:56:18;;;;;;;24.65;7.35;;;11.30;99.90;;;;;;5074045;28;20068;-77
2023/06/09 00:58:44;;;;;;;19.33;7.25;;;11.30;99.90;;;;;;5099619;27;20071;-77
2023/06/09 01:01:10;;;;;;;17.63;8.02;;;11.30;99.90;;;;;;5094268;27;20067;-77
2023/06/09 01:03:38;;;;;;;17.88;8.02;;;11.30;99.90;;;;;;5082596;28;20035;-77
2023/06/09 01:06:43;;;;;;;18.50;7.75;;;11.30;99.90;;;;;;5091917;27;20160;-77
2023/06/09 01:09:16;;;;;;;17.98;7.82;;;11.20;99.90;;;;;;5055164;28;20044;-77
2023/06/09 01:12:05;;;;;;;21.02;7.38;;;11.20;99.90;;;;;;5076990;28;20343;-77
2023/06/09 01:15:27;;;;;;;22.83;8.63;;;11.20;99.90;;;;;;5063053;28;20045;-77
2023/06/09 01:18:00;;;;;;;20.90;7.57;;;11.20;99.90;;;;;;5028476;28;20904;-77
2023/06/09 01:20:45;;;;;;;18.08;7.22;;;11.20;99.90;;;;;;5078008;28;20048;-77
2023/06/09 01:23:44;;;;;;;14.75;7.55;;;11.10;99.90;;;;;;5067523;28;20055;-77
2023/06/09 01:26:11;;;;;;;23.50;8.40;;;11.10;99.90;;;;;;5103662;27;20036;-77
2023/06/09 01:28:38;;;;;;;17.58;7.78;;;11.10;99.90;;;;;;5082607;28;20050;-77
2023/06/09 01:31:04;;;;;;;23.25;8.00;;;11.10;99.90;;;;;;5095509;27;20066;-77
2023/06/09 01:33:31;;;;;;;24.73;7.72;;;11.10;99.90;;;;;;5074733;28;20126;-77
2023/06/09 01:35:57;;;;;;;23.30;8.02;;;11.10;99.90;;;;;;5093063;27;20396;-76
2023/06/09 01:38:24;;;;;;;20.70;8.18;;;11.10;99.90;;;;;;5064929;28;20041;-77
2023/06/09 01:40:51;;;;;;;17.73;7.10;;;11.10;99.90;;;;;;5075275;28;20026;-77
2023/06/09 01:43:17;;;;;;;20.85;8.13;;;11.10;99.90;;;;;;5074070;28;20083;-77
2023/06/09 01:45:43;;;;;;;23.00;8.18;;;11.10;99.90;;;;;;5101326;27;20066;-77
2023/06/09 01:48:17;;;;;;;25.50;8.95;;;11.10;99.90;;;;;;5083891;28;20485;-77
2023/06/09 01:50:56;;;;;;;22.77;8.85;;;11.10;99.90;;;;;;5091671;27;20413;-78
2023/06/09 01:53:27;;;;;;;23.13;8.70;;;11.10;99.90;;;;;;5059228;28;20083;-78
2023/06/09 01:56:15;;;;;;;19.20;8.05;;;11.10;99.90;;;;;;5058443;28;20032;-77
2023/06/09 01:58:46;;;;;;;18.20;8.90;;;11.00;99.90;;;;;;5089130;27;20482;-78
2023/06/09 02:01:17;;;;;;;25.35;9.00;;;11.00;99.90;;;;;;5085463;28;20039;-78
2023/06/09 02:03:44;;;;;;;19.08;8.60;;;11.00;99.90;;;;;;5074859;28;20044;-78
2023/06/09 02:06:15;;;;;;;20.42;8.02;;;11.00;99.90;;;;;;5079062;28;20497;-79
2023/06/09 02:08:42;;;;;;;26.38;8.77;;;11.10;99.90;;;;;;5068489;28;20397;-79
2023/06/09 02:11:10;;;;;;;23.55;8.52;;;11.10;99.90;;;;;;5062725;28;20087;-79
2023/06/09 02:13:35;;;;;;;21.05;8.48;;;11.10;99.90;;;;;;5080380;28;20032;-78
2023/06/09 02:16:01;;;;;;;22.48;9.20;;;11.00;99.90;;;;;;5057502;28;20040;-78
2023/06/09 02:18:27;;;;;;;23.60;8.57;;;11.00;99.90;;;;;;5067363;28;20119;-78
2023/06/09 02:20:53;;;;;;;28.55;9.80;;;11.00;99.90;;;;;;5076554;28;20041;-78
2023/06/09 02:23:21;;;;;;;24.27;9.05;;;11.00;99.90;;;;;;5083298;28;20042;-78
2023/06/09 02:25:47;;;;;;;21.70;8.63;;;11.10;99.90;;;;;;5061655;28;20123;-77
2023/06/09 02:28:14;;;;;;;21.88;8.68;;;11.00;99.90;;;;;;5080301;28;20097;-77
2023/06/09 02:30:39;;;;;;;20.33;8.48;;;11.00;99.90;;;;;;5076230;28;20122;-78
2023/06/09 02:33:05;;;;;;;26.10;8.70;;;11.00;99.90;;;;;;5091910;27;20044;-79
2023/06/09 02:35:31;;;;;;;23.20;9.35;;;11.00;99.90;;;;;;5073753;28;20032;-79
2023/06/09 02:37:57;;;;;;;21.85;8.20;;;11.00;99.90;;;;;;5062274;28;20032;-78
2023/06/09 02:40:26;;;;;;;25.95;8.93;;;11.00;99.90;;;;;;5074488;28;20028;-77
2023/06/09 02:42:52;;;;;;;23.92;9.48;;;11.00;99.90;;;;;;5076402;28;20045;-78
2023/06/09 02:45:18;;;;;;;26.42;9.55;;;10.90;99.90;;;;;;5092675;27;20077;-79
2023/06/09 02:47:43;;;;;;;33.00;9.00;;;10.90;99.90;;;;;;5108581;27;20063;-78
2023/06/09 02:50:10;;;;;;;25.10;9.57;;;10.90;99.90;;;;;;5075355;28;20068;-79
2023/06/09 02:52:35;;;;;;;24.38;8.77;;;10.90;99.90;;;;;;5080022;28;20060;-80
2023/06/09 02:55:03;;;;;;;27.52;8.70;;;10.90;99.90;;;;;;5115582;27;20031;-78
2023/06/09 02:57:29;;;;;;;21.98;9.18;;;10.90;99.90;;;;;;5080881;28;20040;-78
2023/06/09 02:59:55;;;;;;;19.63;8.98;;;10.90;99.90;;;;;;5053527;28;20033;-78
2023/06/09 03:02:21;;;;;;;31.77;10.35;;;10.90;99.90;;;;;;5089284;28;20040;-78
2023/06/09 03:04:47;;;;;;;27.17;9.75;;;10.90;99.90;;;;;;5073949;28;20040;-78
2023/06/09 03:07:16;;;;;;;23.48;9.57;;;10.90;99.90;;;;;;5063391;28;20409;-78
2023/06/09 03:09:42;;;;;;;27.15;9.10;;;10.90;99.90;;;;;;5078430;28;20093;-78
2023/06/09 03:12:08;;;;;;;20.23;10.23;;;10.80;99.90;;;;;;5066997;28;20044;-78
2023/06/09 03:14:35;;;;;;;25.67;9.50;;;10.80;99.90;;;;;;5069472;28;20033;-78
2023/06/09 03:17:01;;;;;;;23.27;9.32;;;10.80;99.90;;;;;;5090060;28;20294;-79
2023/06/09 03:19:27;;;;;;;20.88;9.77;;;10.80;99.90;;;;;;5091580;28;20128;-78
2023/06/09 03:21:53;;;;;;;28.38;9.43;;;10.80;99.90;;;;;;5076230;28;20125;-78
2023/06/09 03:24:19;;;;;;;21.83;9.23;;;10.80;99.90;;;;;;5089995;27;20204;-78
2023/06/09 03:26:46;;;;;;;28.23;10.18;;;10.80;99.90;;;;;;5087473;28;20501;-79
2023/06/09 03:29:11;;;;;;;25.35;10.77;;;10.80;99.90;;;;;;5078814;28;20389;-79
2023/06/09 03:31:37;;;;;;;28.33;9.68;;;10.80;99.90;;;;;;5073777;28;20056;-79
2023/06/09 03:34:03;;;;;;;28.00;9.73;;;10.80;99.90;;;;;;5091687;28;20546;-79
2023/06/09 03:36:28;;;;;;;27.70;9.93;;;10.80;99.90;;;;;;5111166;27;20029;-79
2023/06/09 03:38:54;;;;;;;30.80;9.52;;;10.80;99.90;;;;;;5093179;28;20064;-79
2023/06/09 03:41:21;;;;;;;21.83;8.93;;;10.80;99.90;;;;;;5116291;27;20051;-78
2023/06/09 03:43:47;;;;;;;24.95;9.93;;;10.80;99.90;;;;;;5080177;28;20050;-79
2023/06/09 03:46:13;;;;;;;29.05;9.63;;;10.80;99.90;;;;;;5069511;28;20032;-79
2023/06/09 03:48:40;;;;;;;21.05;9.13;;;10.80;99.90;;;;;;5082617;28;20044;-79
2023/06/09 03:51:06;;;;;;;25.15;9.30;;;10.80;99.90;;;;;;5077711;28;20086;-79
2023/06/09 03:53:31;;;;;;;26.40;10.43;;;10.90;99.90;;;;;;5094460;28;20441;-79
2023/06/09 03:55:59;;;;;;;24.05;10.55;;;10.80;99.90;;;;;;5066541;28;20049;-79
2023/06/09 03:58:25;;;;;;;24.80;9.52;;;10.90;99.90;;;;;;5076261;28;20115;-79
2023/06/09 04:00:51;;;;;;;21.40;9.45;;;10.90;99.90;;;;;;5075446;28;20094;-79
2023/06/09 04:03:18;;;;;;;27.50;9.88;;;10.90;99.90;;;;;;5070959;28;20107;-79
2023/06/09 04:05:44;;;;;;;28.15;11.02;;;10.90;99.90;;;;;;5075733;28;20044;-79
2023/06/09 04:08:11;;;;;;;25.25;9.43;;;10.90;99.90;;;;;;5099223;28;20044;-79
2023/06/09 04:10:38;;;;;;;22.88;9.25;;;11.00;99.90;;;;;;5071493;28;20044;-79
2023/06/09 04:13:04;;;;;;;27.88;9.85;;;11.00;99.90;;;;;;5103943;28;20039;-79
2023/06/09 04:15:29;;;;;;;25.92;9.52;;;11.00;99.90;;;;;;5067733;28;20043;-79
2023/06/09 04:17:55;;;;;;;23.27;10.02;;;11.00;99.90;;;;;;5097233;28;20032;-78
2023/06/09 04:20:22;;;;;;;23.90;9.57;;;11.00;99.90;;;;;;5111189;28;20036;-79
2023/06/09 04:22:52;;;;;;;25.48;11.15;;;11.10;99.90;;;;;;5100540;28;20052;-79
2023/06/09 04:25:28;;;;;;;26.67;11.48;;;11.20;99.90;;;;;;5100733;28;20102;-79
2023/06/09 04:27:54;;;;;;;22.55;10.45;;;11.20;99.90;;;;;;5071460;28;21228;-78
2023/06/09 04:30:29;;;;;;;28.15;9.93;;;11.20;99.90;;;;;;5064074;28;20035;-79
2023/06/09 04:32:59;;;;;;;27.67;11.15;;;11.30;99.90;;;;;;5064093;28;20032;-79
2023/06/09 04:35:24;;;;;;;22.52;9.65;;;11.30;99.90;;;;;;5100454;27;20072;-79
2023/06/09 04:37:51;;;;;;;31.67;11.30;;;11.30;99.90;;;;;;5056688;28;20497;-79
2023/06/09 04:40:23;;;;;;;23.10;10.80;;;11.40;99.90;;;;;;5093655;28;20043;-79
2023/06/09 04:42:55;;;;;;;34.17;10.90;;;11.40;99.90;;;;;;5074439;28;20489;-78
2023/06/09 04:45:34;;;;;;;31.53;10.30;;;11.40;99.90;;;;;;5089066;28;20040;-79
2023/06/09 04:48:01;;;;;;;26.90;10.48;;;11.40;99.90;;;;;;5084369;28;20431;-79
2023/06/09 04:50:32;;;;;;;60.65;13.45;;;11.50;99.90;;;;;;5117952;27;20055;-79
2023/06/09 04:52:59;;;;;;;28.60;10.57;;;11.50;99.90;;;;;;5106743;27;20452;-79
2023/06/09 04:55:26;;;;;;;28.25;10.13;;;11.50;99.90;;;;;;5073017;28;20044;-79
2023/06/09 04:57:56;;;;;;;24.55;10.60;;;11.60;99.90;;;;;;5105632;27;20032;-78
2023/06/09 05:00:26;;;;;;;37.05;11.82;;;11.60;99.90;;;;;;5102730;27;20035;-78
2023/06/09 05:02:53;;;;;;;22.65;10.95;;;11.70;99.90;;;;;;5086485;28;20040;-78
2023/06/09 05:05:20;;;;;;;24.77;12.05;;;11.70;99.90;;;;;;5094424;27;20549;-79
2023/06/09 05:07:46;;;;;;;24.75;10.40;;;11.70;99.90;;;;;;5097702;27;20043;-78
2023/06/09 05:10:12;;;;;;;22.45;10.70;;;11.80;99.90;;;;;;5060163;28;20043;-78
2023/06/09 05:12:39;;;;;;;26.50;10.80;;;11.80;99.90;;;;;;5101764;27;20093;-78
2023/06/09 05:15:06;;;;;;;26.40;11.95;;;11.90;99.90;;;;;;5089708;27;20040;-79
2023/06/09 05:17:33;;;;;;;42.40;12.30;;;11.90;99.90;;;;;;5085258;28;20565;-78
2023/06/09 05:19:59;;;;;;;47.47;11.43;;;12.00;99.90;;;;;;5098113;27;20485;-78
2023/06/09 05:22:25;;;;;;;30.40;12.15;;;12.10;99.90;;;;;;5105469;27;20515;-78
2023/06/09 05:24:51;;;;;;;29.38;11.18;;;12.20;99.90;;;;;;5081609;28;20048;-78
2023/06/09 05:27:17;;;;;;;29.35;10.98;;;12.30;99.90;;;;;;5084831;28;20067;-78
2023/06/09 05:29:43;;;;;;;30.40;10.52;;;12.30;99.90;;;;;;5082305;28;20071;-78
2023/06/09 05:32:09;;;;;;;35.55;10.43;;;12.40;99.90;;;;;;5100924;27;20512;-78
2023/06/09 05:34:34;;;;;;;45.60;11.15;;;12.50;99.90;;;;;;5101986;27;20115;-78
2023/06/09 05:37:00;;;;;;;27.48;10.63;;;12.50;99.90;;;;;;5072108;28;20299;-78
2023/06/09 05:39:26;;;;;;;43.15;11.63;;;12.60;99.90;;;;;;5091838;27;20053;-78
2023/06/09 05:41:51;;;;;;;39.92;12.13;;;12.70;99.90;;;;;;5099549;27;20036;-78
2023/06/09 05:44:18;;;;;;;28.90;10.55;;;12.80;99.90;;;;;;5087284;28;20692;-78
2023/06/09 05:46:44;;;;;;;60.78;13.13;;;12.90;99.90;;;;;;5052061;28;20052;-80
2023/06/09 05:49:10;;;;;;;23.15;11.88;;;13.00;99.90;;;;;;5087373;28;20036;-78
2023/06/09 05:51:36;;;;;;;28.42;9.98;;;13.00;99.90;;;;;;5097268;27;20075;-78
2023/06/09 05:54:02;;;;;;;21.67;10.60;;;13.10;99.90;;;;;;5075060;28;20036;-79
2023/06/09 05:56:28;;;;;;;23.23;10.63;;;13.20;99.90;;;;;;5071890;28;20118;-79
2023/06/09 05:59:03;;;;;;;23.55;9.93;;;13.30;99.90;;;;;;5088708;28;20120;-78
2023/06/09 06:01:32;;;;;;;17.40;9.93;;;13.40;99.90;;;;;;5087178;28;20033;-78
2023/06/09 06:03:59;;;;;;;18.50;9.88;;;13.50;99.90;;;;;;5082752;28;20036;-78
2023/06/09 06:06:25;;;;;;;22.70;10.52;;;13.60;99.90;;;;;;5084461;28;20036;-78
2023/06/09 06:08:51;;;;;;;18.95;9.80;;;13.70;99.90;;;;;;5091509;27;20497;-78
2023/06/09 06:11:17;;;;;;;30.23;10.32;;;13.80;99.90;;;;;;5070654;28;20051;-79
2023/06/09 06:13:42;;;;;;;22.00;10.80;;;13.90;99.90;;;;;;5056542;28;20036;-79
2023/06/09 06:16:08;;;;;;;24.63;10.70;;;14.00;99.90;;;;;;5071486;28;20099;-79
2023/06/09 06:18:34;;;;;;;37.47;10.13;;;14.10;99.90;;;;;;5102761;28;20024;-79
2023/06/09 06:20:59;;;;;;;23.25;9.63;;;14.30;99.90;;;;;;5069830;28;20157;-79
2023/06/09 06:23:25;;;;;;;22.48;9.35;;;14.40;99.90;;;;;;5100232;28;20075;-78
2023/06/09 06:25:51;;;;;;;21.00;9.75;;;14.60;99.90;;;;;;5060293;28;20120;-79
2023/06/09 06:28:17;;;;;;;54.65;12.93;;;14.70;99.90;;;;;;5120478;27;20043;-80
2023/06/09 06:30:43;;;;;;;22.92;9.45;;;14.80;99.90;;;;;;5064658;28;20048;-80
2023/06/09 06:33:09;;;;;;;19.33;9.35;;;15.00;99.90;;;;;;5075829;28;20043;-69
2023/06/09 06:35:34;;;;;;;36.70;10.52;;;15.30;99.90;;;;;;5123371;27;20066;-69
2023/06/09 06:38:00;;;;;;;31.02;10.63;;;15.20;99.90;;;;;;5076470;28;20056;-69
2023/06/09 06:40:26;;;;;;;17.00;8.13;;;15.40;99.90;;;;;;5111234;27;20148;-69
2023/06/09 06:42:52;;;;;;;28.08;10.00;;;15.50;99.90;;;;;;5081579;28;20032;-69
2023/06/09 06:45:18;;;;;;;16.17;8.68;;;15.70;99.90;;;;;;5098971;27;20092;-69
2023/06/09 06:47:45;;;;;;;17.40;8.63;;;15.80;99.90;;;;;;5081797;28;20138;-69
2023/06/09 06:50:12;;;;;;;65.78;11.10;;;15.90;99.90;;;;;;5077169;28;20028;-69
2023/06/09 06:52:38;;;;;;;19.75;8.32;;;16.10;99.90;;;;;;5064924;28;20112;-67
2023/06/09 06:55:08;;;;;;;18.38;8.32;;;16.20;99.90;;;;;;5098511;28;20091;-68
2023/06/09 06:57:35;;;;;;;20.52;7.82;;;16.40;99.90;;;;;;5115733;27;20397;-68
2023/06/09 07:00:04;;;;;;;24.52;8.57;;;16.60;99.90;;;;;;5079191;28;20614;-68
2023/06/09 07:02:30;;;;;;;20.00;8.43;;;16.70;99.90;;;;;;5079159;28;20044;-68
2023/06/09 07:04:56;;;;;;;29.67;8.70;;;16.90;99.90;;;;;;5091422;27;20073;-68
2023/06/09 07:07:25;;;;;;;15.20;7.70;;;17.00;99.90;;;;;;5094063;28;20043;-68
2023/06/09 07:09:51;;;;;;;19.77;8.40;;;17.20;99.90;;;;;;5095437;27;20104;-67
2023/06/09 07:12:17;;;;;;;16.90;7.60;;;17.40;99.90;;;;;;5080916;28;20044;-68
2023/06/09 07:14:43;;;;;;;24.98;8.27;;;17.50;99.90;;;;;;5078497;28;20500;-68
2023/06/09 07:17:09;;;;;;;33.95;8.52;;;17.70;99.90;;;;;;5089111;28;20036;-68
2023/06/09 07:19:35;;;;;;;89.60;11.98;;;17.80;99.90;;;;;;5082685;28;20036;-68
2023/06/09 07:22:01;;;;;;;22.23;8.63;;;18.00;99.90;;;;;;5088123;28;20520;-68
2023/06/09 07:24:27;;;;;;;13.18;6.57;;;18.10;99.90;;;;;;5082219;28;20079;-68
2023/06/09 07:26:53;;;;;;;14.52;6.85;;;18.30;99.90;;;;;;5088217;28;20076;-68
2023/06/09 07:29:19;;;;;;;10.90;6.82;;;18.40;99.90;;;;;;5105469;28;20043;-68
2023/06/09 07:31:45;;;;;;;19.13;6.80;;;18.50;99.90;;;;;;5078876;28;20031;-68
2023/06/09 07:34:11;;;;;;;18.23;7.07;;;18.60;99.90;;;;;;5083660;28;20037;-68
2023/06/09 07:36:38;;;;;;;14.10;6.70;;;18.70;99.90;;;;;;5070402;28;20498;-68
2023/06/09 07:39:04;;;;;;;12.55;7.13;;;18.90;99.90;;;;;;5095489;28;20043;-68
2023/06/09 07:41:30;;;;;;;16.60;6.78;;;19.00;99.90;;;;;;5087514;28;20036;-68
2023/06/09 07:43:57;;;;;;;13.02;5.60;;;19.20;99.90;;;;;;5089715;28;20056;-68
2023/06/09 07:46:23;;;;;;;11.68;6.68;;;19.30;99.90;;;;;;5088234;28;20493;-68
2023/06/09 07:48:49;;;;;;;12.20;6.05;;;19.40;99.90;;;;;;5087902;28;20048;-68
2023/06/09 07:51:16;;;;;;;12.30;7.15;;;19.50;99.90;;;;;;5087127;28;20485;-68
2023/06/09 07:53:43;;;;;;;13.80;6.07;;;19.60;99.90;;;;;;5115257;27;20460;-68
2023/06/09 07:56:09;;;;;;;12.82;6.40;;;19.80;99.90;;;;;;5087871;28;20044;-68
2023/06/09 07:58:36;;;;;;;16.27;6.22;;;20.00;99.90;;;;;;5087691;28;20032;-68
2023/06/09 08:01:02;;;;;;;10.05;6.32;;;20.10;99.90;;;;;;5121392;28;20044;-68
2023/06/09 08:03:34;;;;;;;11.52;5.97;;;20.30;99.90;;;;;;5076264;28;20040;-68
2023/06/09 08:06:00;;;;;;;;;;;20.40;99.90;;;;;;5085129;28;20036;-68
2023/06/09 08:08:26;;;;;;;15.90;6.47;;;20.50;99.90;;;;;;5115367;27;19920;-68
2023/06/09 08:10:52;;;;;;;13.02;6.25;;;20.60;99.90;;;;;;5088700;28;20485;-68
2023/06/09 08:13:17;;;;;;;59.33;11.30;;;20.80;99.90;;;;;;5079835;28;20081;-68
2023/06/09 08:15:44;;;;;;;51.55;11.57;;;20.90;99.90;;;;;;5066103;28;20077;-68
2023/06/09 08:18:09;;;;;;;63.80;10.98;;;21.10;99.90;;;;;;5107585;28;20099;-68
2023/06/09 08:20:35;;;;;;;12.52;6.68;;;21.20;99.90;;;;;;5100986;28;20064;-69
2023/06/09 08:23:02;;;;;;;11.82;6.03;;;21.30;99.90;;;;;;5123608;27;20046;-68
2023/06/09 08:25:27;;;;;;;13.15;6.43;;;21.50;99.90;;;;;;5079425;28;20044;-68
2023/06/09 08:27:53;;;;;;;11.32;6.43;;;21.70;99.90;;;;;;5060020;28;20064;-68
2023/06/09 08:30:18;;;;;;;18.60;6.32;;;21.80;99.90;;;;;;5092736;28;20027;-69
2023/06/09 08:32:46;;;;;;;14.10;6.35;;;21.90;99.90;;;;;;5076415;28;20127;-76
2023/06/09 08:35:12;;;;;;;12.68;6.65;;;22.10;99.90;;;;;;5056565;28;20043;-76
2023/06/09 08:37:39;;;;;;;12.43;6.30;;;22.30;99.90;;;;;;5060065;28;20040;-76
2023/06/09 08:40:08;;;;;;;11.30;5.32;;;22.40;99.90;;;;;;5065882;28;20039;-76
2023/06/09 08:42:34;;;;;;;13.55;6.03;;;22.60;99.90;;;;;;5108215;27;20131;-76
2023/06/09 08:45:04;;;;;;;14.75;6.57;;;22.80;99.90;;;;;;5074149;28;20043;-75
2023/06/09 08:47:29;;;;;;;108.10;16.25;;;22.90;99.50;;;;;;5070206;28;20496;-76
2023/06/09 08:49:59;;;;;;;91.82;18.67;;;23.00;98.80;;;;;;5070669;28;20130;-76
2023/06/09 08:52:26;;;;;;;21.02;6.35;;;23.10;97.70;;;;;;5084992;28;20096;-75
2023/06/09 08:54:56;;;;;;;11.15;5.38;;;23.30;98.50;;;;;;5103505;27;20040;-76
2023/06/09 08:57:22;;;;;;;13.10;5.60;;;23.50;97.90;;;;;;5066431;28;20562;-76
2023/06/09 08:59:50;;;;;;;11.70;5.95;;;23.60;98.00;;;;;;5108231;27;20349;-76
2023/06/09 09:02:16;;;;;;;11.13;5.82;;;23.80;97.70;;;;;;5088005;27;20075;-76
2023/06/09 09:04:42;;;;;;;9.60;5.72;;;23.90;96.80;;;;;;5067489;28;20036;-76
2023/06/09 09:07:11;;;;;;;11.07;5.82;;;24.10;96.80;;;;;;5062214;28;20112;-76
2023/06/09 09:09:40;;;;;;;12.90;5.55;;;24.20;96.20;;;;;;5087344;27;20144;-76
2023/06/09 09:12:12;;;;;;;11.85;5.57;;;24.40;96.30;;;;;;5069371;28;20063;-76
2023/06/09 09:14:47;;;;;;;12.57;5.70;;;24.50;94.60;;;;;;5082230;28;20693;-75
2023/06/09 09:17:15;;;;;;;12.43;5.65;;;24.60;94.60;;;;;;5089250;27;20055;-76
2023/06/09 09:19:48;;;;;;;9.98;5.90;;;24.80;94.70;;;;;;5084528;28;20043;-76
2023/06/09 09:22:14;;;;;;;8.18;5.07;;;24.90;93.90;;;;;;5071852;28;20084;-76
2023/06/09 09:24:44;;;;;;;9.63;5.88;;;25.10;94.10;;;;;;5084378;28;20036;-76
2023/06/09 09:27:26;;;;;;;10.10;5.80;;;25.10;93.00;;;;;;5076387;28;20042;-75
2023/06/09 09:29:51;;;;;;;12.52;5.45;;;25.20;92.70;;;;;;5089847;28;20043;-75
2023/06/09 09:32:24;;;;;;;8.30;5.45;;;25.40;92.90;;;;;;5060323;28;20036;-75
2023/06/09 09:34:49;;;;;;;11.45;5.32;;;25.50;92.30;;;;;;5078354;28;20244;-75
2023/06/09 09:37:16;;;;;;;9.63;4.90;;;25.70;92.30;;;;;;5074781;28;20077;-75
2023/06/09 09:39:52;;;;;;;9.98;5.45;;;25.90;92.30;;;;;;5089362;28;20031;-75
2023/06/09 09:42:20;;;;;;;13.48;6.05;;;26.10;91.60;;;;;;5094176;28;20035;-75
2023/06/09 09:44:47;;;;;;;18.23;6.32;;;26.20;91.60;;;;;;5095710;28;20046;-75
2023/06/09 09:47:15;;;;;;;13.05;4.95;;;26.40;91.30;;;;;;5095423;28;20085;-75
2023/06/09 09:49:55;;;;;;;11.35;5.80;;;26.50;90.40;;;;;;5091706;28;20112;-75
2023/06/09 09:52:34;;;;;;;11.68;5.18;;;26.60;89.10;;;;;;5091484;28;20093;-75
2023/06/09 09:55:04;;;;;;;9.70;6.43;;;26.80;88.80;;;;;;5079037;28;20039;-76
2023/06/09 09:57:31;;;;;;;12.50;5.05;;;26.80;88.20;;;;;;5077101;28;20028;-76
2023/06/09 10:00:08;;;;;;;8.80;5.28;;;26.90;87.90;;;;;;5079342;28;20040;-74
2023/06/09 10:02:36;;;;;;;9.82;5.55;;;27.00;88.30;;;;;;5077081;28;20718;-76
2023/06/09 10:05:04;;;;;;;14.27;5.07;;;27.20;87.90;;;;;;5073565;28;20530;-76
2023/06/09 10:07:32;;;;;;;13.32;5.45;;;27.30;86.50;;;;;;5104368;27;20176;-75
2023/06/09 10:09:58;;;;;;;17.90;5.32;;;27.30;85.20;;;;;;5073028;28;20556;-76
2023/06/09 10:12:25;;;;;;;10.10;4.80;;;27.40;84.90;;;;;;5075922;28;20488;-76
2023/06/09 10:14:53;;;;;;;6.35;4.95;;;27.50;84.50;;;;;;5078682;28;20063;-76
2023/06/09 10:17:22;;;;;;;12.13;5.63;;;27.60;83.90;;;;;;5076393;28;20165;-76
2023/06/09 10:19:51;;;;;;;18.83;5.22;;;27.70;84.20;;;;;;5077386;28;20444;-76
2023/06/09 10:22:19;;;;;;;8.90;5.07;;;28.00;82.70;;;;;;5089984;28;20032;-76
2023/06/09 10:24:46;;;;;;;9.82;4.63;;;28.20;83.70;;;;;;5079799;28;20028;-76
2023/06/09 10:27:13;;;;;;;10.82;5.30;;;28.40;84.30;;;;;;5099012;28;20036;-76
2023/06/09 10:29:40;;;;;;;9.55;4.80;;;28.50;82.20;;;;;;5107265;28;20063;-76
2023/06/09 10:32:08;;;;;;;8.32;4.95;;;28.60;82.40;;;;;;5094028;28;20496;-76
2023/06/09 10:34:34;;;;;;;14.90;5.45;;;28.60;79.10;;;;;;5104493;27;20028;-76
2023/06/09 10:37:00;;;;;;;10.55;5.30;;;28.80;80.10;;;;;;5075831;28;20350;-77
2023/06/09 10:39:42;;;;;;;8.60;5.20;;;29.00;79.80;;;;;;5109775;27;20036;-75
2023/06/09 10:42:11;;;;;;;;;;;29.10;77.00;;;;;;5061698;28;20397;-76
2023/06/09 10:45:13;;;;;;;6.70;4.53;;;29.00;76.90;;;;;;5063910;28;19919;-76
2023/06/09 10:47:49;;;;;;;9.52;4.63;;;29.20;76.90;;;;;;5058724;28;20036;-77
2023/06/09 10:50:23;;;;;;;8.65;4.97;;;29.30;76.00;;;;;;5054528;28;20044;-77
2023/06/09 10:52:53;;;;;;;9.48;4.75;;;29.40;74.90;;;;;;5076888;28;20680;-77
2023/06/09 10:55:21;;;;;;;11.18;4.53;;;29.30;74.20;;;;;;5074802;28;20040;-75
2023/06/09 10:57:47;;;;;;;11.07;5.20;;;29.50;75.60;;;;;;5067253;28;20048;-76
2023/06/09 11:00:15;;;;;;;8.07;4.78;;;29.70;75.20;;;;;;5100762;27;20100;-76
2023/06/09 11:03:08;;;;;;;4.78;4.32;;;29.70;74.00;;;;;;5105697;27;20036;-76
2023/06/09 11:05:44;;;;;;;9.98;5.18;;;29.90;71.50;;;;;;5097245;27;20155;-75
2023/06/09 11:08:10;;;;;;;12.75;5.00;;;29.90;71.40;;;;;;5107814;27;20040;-74
2023/06/09 11:10:36;;;;;;;10.32;5.07;;;29.90;72.60;;;;;;5091749;27;20102;-74
2023/06/09 11:13:23;;;;;;;5.95;4.68;;;29.90;72.10;;;;;;5074675;28;20037;-74
2023/06/09 11:15:57;;;;;;;7.03;4.97;;;29.90;72.60;;;;;;5060731;28;20037;-73
2023/06/09 11:18:23;;;;;;;7.10;4.47;;;30.00;71.20;;;;;;5064697;28;20370;-74
2023/06/09 11:21:19;;;;;;;11.57;4.50;;;30.00;72.10;;;;;;5084583;28;20078;-79
2023/06/09 11:24:02;;;;;;;13.55;4.90;;;30.20;70.60;;;;;;5052219;28;20059;-73
2023/06/09 11:26:30;;;;;;;10.18;4.60;;;30.30;71.30;;;;;;5059079;28;20046;-74
2023/06/09 11:28:56;;;;;;;7.05;4.65;;;30.20;70.30;;;;;;5082881;28;20460;-74
2023/06/09 11:31:22;;;;;;;6.13;4.68;;;30.10;69.90;;;;;;5073294;28;20051;-74
2023/06/09 11:33:50;;;;;;;6.68;4.30;;;30.10;69.50;;;;;;5083436;28;20396;-74
2023/06/09 11:36:34;;;;;;;38.35;5.93;;;30.20;69.40;;;;;;5092866;28;20607;-74
2023/06/09 11:39:03;;;;;;;12.73;4.85;;;30.20;68.10;;;;;;5057714;28;20031;-75
2023/06/09 11:41:30;;;;;;;6.47;4.63;;;30.20;68.10;;;;;;5103215;28;20115;-74
2023/06/09 11:43:56;;;;;;;6.88;4.78;;;30.20;67.00;;;;;;5068159;28;20039;-73
2023/06/09 11:46:22;;;;;;;10.60;5.15;;;30.30;68.60;;;;;;5118960;27;20519;-74
2023/06/09 11:49:07;;;;;;;10.45;4.70;;;30.40;68.20;;;;;;5091960;28;20168;-74
2023/06/09 11:51:56;;;;;;;9.43;4.28;;;30.40;67.50;;;;;;5108448;27;20044;-74
2023/06/09 11:54:21;;;;;;;19.77;5.30;;;30.30;65.40;;;;;;5088182;28;20062;-75
2023/06/09 11:56:48;;;;;;;7.78;5.07;;;30.40;67.90;;;;;;5092315;28;20126;-75
2023/06/09 11:59:18;;;;;;;10.80;5.13;;;30.40;66.60;;;;;;5108879;28;20451;-75
2023/06/09 12:01:46;;;;;;;5.90;4.80;;;30.50;67.00;;;;;;5090837;28;20431;-75
2023/06/09 12:04:11;;;;;;;6.75;4.53;;;30.60;66.90;;;;;;5107435;27;20690;-74
2023/06/09 12:06:37;;;;;;;11.43;5.07;;;30.60;66.60;;;;;;5081527;28;20044;-75
2023/06/09 12:09:23;;;;;;;11.32;5.22;;;30.60;65.90;;;;;;5075254;28;20052;-74
2023/06/09 12:11:53;;;;;;;8.38;4.82;;;30.60;64.50;;;;;;5081450;28;20040;-74
2023/06/09 12:14:22;;;;;;;8.15;4.57;;;30.60;65.40;;;;;;5090355;28;20044;-74
2023/06/09 12:16:49;;;;;;;12.73;5.03;;;30.60;65.50;;;;;;5109175;28;20135;-75
2023/06/09 12:19:17;;;;;;;8.35;4.57;;;30.60;65.40;;;;;;5085901;28;20047;-75
2023/06/09 12:21:46;;;;;;;9.63;4.65;;;30.60;65.60;;;;;;5086624;28;20036;-75
2023/06/09 12:24:12;;;;;;;9.82;4.60;;;30.70;65.70;;;;;;5082952;28;20533;-74
2023/06/09 12:26:39;;;;;;;13.23;4.68;;;30.80;66.10;;;;;;5090977;28;20051;-75
2023/06/09 12:29:05;;;;;;;8.43;4.90;;;30.80;65.10;;;;;;5090988;28;20036;-74
2023/06/09 12:31:31;;;;;;;6.30;4.55;;;30.90;65.40;;;;;;5093344;28;20176;-74
2023/06/09 12:33:58;;;;;;;5.88;4.88;;;30.90;65.30;;;;;;5107545;27;20040;-74
2023/06/09 12:36:25;;;;;;;6.03;4.68;;;31.00;65.20;;;;;;5108362;27;20686;-74
2023/06/09 12:38:51;;;;;;;11.02;4.82;;;31.10;65.50;;;;;;5099313;27;20114;-74
2023/06/09 12:41:17;;;;;;;10.07;4.57;;;31.20;65.20;;;;;;5108577;28;20039;-74